Time;durP1;ratioP1;P1;durP2;ratioP2;P2;SDS_P1;SDS_P2;PMS_P1;PMS_P2;Temp;Humidity;BMP_temperature;BMP_pressure;BME280_temperature;BME280_humidity;BME280_pressure;Samples;Min_cycle;Max_cycle;Signal;HPM_P1;HPM_P2
2021/01/15 00:00:11;;;;;;;38.75;22.73;;;;;;;3.12;100.00;98173.44;5038294;28;46151;-76
2021/01/15 00:02:36;;;;;;;64.95;25.95;;;;;;;2.92;100.00;98173.09;5034520;28;45535;-76
2021/01/15 00:05:02;;;;;;;62.10;23.80;;;;;;;2.99;100.00;98178.75;5037238;28;45353;-76
2021/01/15 00:07:30;;;;;;;173.40;31.15;;;;;;;3.00;100.00;98178.66;5040085;28;45307;-76
2021/01/15 00:09:56;;;;;;;142.05;31.00;;;;;;;3.08;100.00;98172.81;5039984;28;45235;-76
2021/01/15 00:12:22;;;;;;;110.07;25.65;;;;;;;2.89;100.00;98176.78;5039914;28;45280;-76
2021/01/15 00:14:48;;;;;;;344.50;32.47;;;;;;;2.85;100.00;98174.50;5040299;28;45386;-76
2021/01/15 00:17:13;;;;;;;62.15;21.98;;;;;;;3.02;100.00;98178.53;5040068;28;45532;-76
2021/01/15 00:19:39;;;;;;;163.82;25.63;;;;;;;2.83;100.00;98177.22;5038755;28;48027;-76
2021/01/15 00:22:04;;;;;;;174.05;27.95;;;;;;;2.96;100.00;98184.22;5039863;28;45330;-76
2021/01/15 00:24:29;;;;;;;47.30;20.13;;;;;;;2.90;100.00;98183.69;5039877;28;45488;-76
2021/01/15 00:26:55;;;;;;;43.38;19.63;;;;;;;3.01;100.00;98180.31;5039442;28;45478;-76
2021/01/15 00:29:20;;;;;;;33.70;17.50;;;;;;;3.09;100.00;98182.38;5039743;28;45363;-76
2021/01/15 00:31:46;;;;;;;31.50;16.83;;;;;;;2.93;100.00;98177.41;5039842;28;45366;-76
2021/01/15 00:34:13;;;;;;;29.05;16.65;;;;;;;3.08;100.00;98180.69;5039789;28;45480;-76
2021/01/15 00:36:41;;;;;;;30.60;15.73;;;;;;;2.91;100.00;98189.81;5039744;28;45372;-76
2021/01/15 00:39:08;;;;;;;68.57;19.63;;;;;;;2.84;100.00;98189.38;5039399;28;45311;-76
2021/01/15 00:41:38;;;;;;;27.92;15.68;;;;;;;2.81;100.00;98189.59;5038301;28;45368;-76
2021/01/15 00:44:05;;;;;;;30.17;16.80;;;;;;;2.98;100.00;98184.94;5039844;28;45437;-76
2021/01/15 00:46:33;;;;;;;29.30;15.75;;;;;;;2.87;100.00;98189.19;5039553;28;45306;-76
2021/01/15 00:49:04;;;;;;;28.02;15.35;;;;;;;2.89;100.00;98184.66;5039674;28;45482;-76
2021/01/15 00:51:30;;;;;;;27.08;16.00;;;;;;;3.05;100.00;98183.56;5026101;28;45274;-76
2021/01/15 00:53:57;;;;;;;18.20;11.88;;;;;;;3.00;100.00;98201.44;5039138;28;45427;-76
2021/01/15 00:56:22;;;;;;;18.02;10.75;;;;;;;2.96;100.00;98194.72;5037757;28;45527;-75
2021/01/15 00:58:49;;;;;;;11.93;7.00;;;;;;;3.05;100.00;98188.81;5039384;28;46095;-75
2021/01/15 01:01:16;;;;;;;9.38;5.68;;;;;;;3.01;100.00;98193.47;5033199;28;45510;-75
2021/01/15 01:03:42;;;;;;;9.18;5.85;;;;;;;3.00;100.00;98185.66;5037230;28;45311;-75
2021/01/15 01:06:12;;;;;;;10.60;6.10;;;;;;;3.12;100.00;98189.22;5037839;28;45434;-76
2021/01/15 01:08:38;;;;;;;12.35;6.68;;;;;;;3.16;100.00;98188.06;5039047;28;45362;-76
2021/01/15 01:11:04;;;;;;;12.55;7.28;;;;;;;3.26;100.00;98190.88;5039228;28;45317;-76
2021/01/15 01:13:29;;;;;;;17.63;11.02;;;;;;;3.30;100.00;98202.84;5039091;28;45341;-76
2021/01/15 01:15:55;;;;;;;40.78;19.83;;;;;;;3.04;100.00;98195.88;5039128;28;45426;-76
2021/01/15 01:18:20;;;;;;;40.97;21.23;;;;;;;3.03;100.00;98191.56;5039311;28;45425;-76
2021/01/15 01:20:46;;;;;;;224.95;29.98;;;;;;;2.96;100.00;98186.84;5039041;28;45295;-76
2021/01/15 01:23:11;;;;;;;81.95;23.80;;;;;;;2.94;100.00;98181.72;5039380;28;45317;-75
2021/01/15 01:25:37;;;;;;;76.95;24.95;;;;;;;3.13;100.00;98190.91;5038503;28;45479;-76
2021/01/15 01:28:02;;;;;;;419.73;41.28;;;;;;;3.08;100.00;98193.03;5038801;28;45536;-75
2021/01/15 01:30:27;;;;;;;295.10;32.25;;;;;;;2.92;100.00;98183.59;5038885;28;45337;-76
2021/01/15 01:32:53;;;;;;;340.00;34.55;;;;;;;2.86;100.00;98187.50;5039199;28;45409;-76
2021/01/15 01:35:18;;;;;;;181.77;30.48;;;;;;;2.90;100.00;98183.69;5039021;28;45216;-75
2021/01/15 01:37:44;;;;;;;47.70;22.17;;;;;;;3.04;100.00;98190.59;5038848;28;45242;-75
2021/01/15 01:40:10;;;;;;;34.25;17.63;;;;;;;2.96;100.00;98186.84;5038576;28;45274;-75
2021/01/15 01:42:35;;;;;;;23.40;13.90;;;;;;;2.94;100.00;98188.75;5038814;28;45214;-76
2021/01/15 01:45:01;;;;;;;10.88;7.57;;;;;;;3.03;100.00;98193.34;5038784;28;45293;-76
2021/01/15 01:47:27;;;;;;;12.35;8.48;;;;;;;3.05;100.00;98199.31;5038655;28;45491;-76
2021/01/15 01:49:52;;;;;;;16.33;9.55;;;;;;;3.10;100.00;98204.25;5034692;28;45397;-76
2021/01/15 01:52:18;;;;;;;19.02;9.80;;;;;;;3.14;100.00;98192.56;5029601;28;45345;-76
2021/01/15 01:54:46;;;;;;;4.28;2.80;;;;;;;3.16;100.00;98196.78;5036769;28;45648;-76
2021/01/15 01:57:11;;;;;;;10.70;5.35;;;;;;;3.18;100.00;98204.53;5038110;28;45310;-76
2021/01/15 01:59:37;;;;;;;6.75;3.95;;;;;;;3.22;100.00;98208.63;5038418;28;45337;-76
2021/01/15 02:02:04;;;;;;;4.30;2.65;;;;;;;3.19;100.00;98195.72;5031710;28;45304;-76
2021/01/15 02:04:29;;;;;;;4.53;1.70;;;;;;;3.19;100.00;98195.72;5034535;28;45215;-77
2021/01/15 02:06:55;;;;;;;2.00;1.20;;;;;;;3.15;100.00;98200.38;5038503;28;45468;-76
2021/01/15 02:09:27;;;;;;;3.00;1.17;;;;;;;3.21;100.00;98201.69;5037962;28;45673;-76
2021/01/15 02:12:07;;;;;;;82.97;11.52;;;;;;;2.92;100.00;98199.38;5038653;28;45265;-77
2021/01/15 02:14:59;;;;;;;25.13;12.52;;;;;;;3.08;100.00;98209.59;5024203;28;45591;-77
2021/01/15 02:17:29;;;;;;;14.93;8.38;;;;;;;2.99;100.00;98216.38;5036705;28;47047;-76
2021/01/15 02:20:16;;;;;;;26.02;14.93;;;;;;;2.81;100.00;98220.31;5038381;28;45378;-76
2021/01/15 02:23:01;;;;;;;22.85;13.18;;;;;;;2.92;100.00;98226.47;5025106;28;45274;-76
2021/01/15 02:25:32;;;;;;;25.50;14.20;;;;;;;3.02;100.00;98221.41;5037488;28;45548;-76
2021/01/15 02:28:16;;;;;;;27.17;15.57;;;;;;;3.11;100.00;98229.59;5037814;28;45483;-77
2021/01/15 02:30:47;;;;;;;35.58;19.08;;;;;;;3.16;100.00;98240.59;5025834;28;45247;-77
2021/01/15 02:33:33;;;;;;;50.78;21.58;;;;;;;3.23;100.00;98243.66;5037782;28;45325;-76
2021/01/15 02:36:05;;;;;;;39.70;18.85;;;;;;;2.96;100.00;98253.38;5038031;28;45441;-77
2021/01/15 02:38:48;;;;;;;37.15;19.15;;;;;;;3.03;100.00;98248.50;5037434;28;45412;-77
2021/01/15 02:41:27;;;;;;;24.70;14.70;;;;;;;3.06;100.00;98243.03;5037766;28;45546;-77
2021/01/15 02:43:58;;;;;;;23.85;13.73;;;;;;;2.89;100.00;98239.81;5038026;28;45313;-76
2021/01/15 02:46:36;;;;;;;24.02;14.40;;;;;;;3.06;100.00;98243.03;5037692;28;45568;-77
2021/01/15 02:49:02;;;;;;;23.48;13.40;;;;;;;3.13;100.00;98249.56;5037480;28;46128;-77
2021/01/15 02:51:32;;;;;;;21.75;13.20;;;;;;;3.15;100.00;98252.06;5022931;28;46225;-77
2021/01/15 02:53:58;;;;;;;66.25;22.63;;;;;;;3.12;100.00;98253.16;5037560;28;45232;-77
2021/01/15 02:56:23;;;;;;;191.88;31.63;;;;;;;3.05;100.00;98241.34;5036342;28;45337;-77
2021/01/15 02:58:48;;;;;;;71.57;22.52;;;;;;;2.97;100.00;98247.16;5037690;28;45430;-77
2021/01/15 03:01:14;;;;;;;26.05;15.95;;;;;;;2.73;100.00;98252.34;5037461;28;45500;-77
2021/01/15 03:03:49;;;;;;;29.70;17.75;;;;;;;2.93;100.00;98256.22;5034786;28;45443;-77
2021/01/15 03:06:42;;;;;;;28.02;16.73;;;;;;;2.95;100.00;98246.44;5036378;28;45468;-77
2021/01/15 03:09:09;;;;;;;26.55;16.20;;;;;;;2.95;100.00;98245.59;5035708;28;46867;-77
2021/01/15 03:11:37;;;;;;;22.95;14.45;;;;;;;2.94;100.00;98251.78;5037583;28;45357;-77
2021/01/15 03:14:06;;;;;;;20.90;13.00;;;;;;;2.97;100.00;98251.56;5037451;28;45295;-76
2021/01/15 03:16:34;;;;;;;16.83;10.93;;;;;;;2.96;100.00;98253.38;5037559;28;45165;-77
2021/01/15 03:19:00;;;;;;;13.68;9.00;;;;;;;2.97;100.00;98244.53;5036500;28;46563;-77
2021/01/15 03:21:31;;;;;;;12.45;8.00;;;;;;;2.95;100.00;98241.19;5037496;28;45330;-77
2021/01/15 03:24:04;;;;;;;13.82;9.30;;;;;;;2.98;100.00;98229.59;5037071;28;45426;-77
2021/01/15 03:26:30;;;;;;;11.82;8.02;;;;;;;3.01;100.00;98232.00;5037493;28;45441;-77
2021/01/15 03:28:55;;;;;;;15.45;10.02;;;;;;;3.08;100.00;98214.88;5040552;28;46306;-77
2021/01/15 03:31:21;;;;;;;13.10;8.55;;;;;;;3.07;100.00;98228.94;5041057;28;45401;-78
2021/01/15 03:33:46;;;;;;;20.70;12.20;;;;;;;2.83;100.00;98224.50;5041061;28;45208;-77
2021/01/15 03:36:12;;;;;;;16.05;10.60;;;;;;;2.89;100.00;98225.84;5041032;28;45165;-77
2021/01/15 03:38:37;;;;;;;16.95;11.52;;;;;;;2.81;100.00;98236.88;5040461;28;45398;-77
2021/01/15 03:41:03;;;;;;;16.88;10.98;;;;;;;2.64;100.00;98227.53;5040707;28;45222;-77
2021/01/15 03:43:28;;;;;;;16.75;9.90;;;;;;;2.83;100.00;98228.91;5040678;28;45263;-77
2021/01/15 03:45:55;;;;;;;11.20;7.53;;;;;;;2.86;100.00;98234.78;5040714;28;45400;-77
2021/01/15 03:48:21;;;;;;;10.32;7.00;;;;;;;2.94;100.00;98233.41;5033905;28;45346;-77
2021/01/15 03:50:47;;;;;;;12.02;8.25;;;;;;;2.87;100.00;98236.47;5029109;28;45326;-77
2021/01/15 03:53:16;;;;;;;11.63;7.95;;;;;;;2.90;100.00;98238.03;5038509;28;45523;-77
2021/01/15 03:55:42;;;;;;;428.80;34.55;;;;;;;2.68;100.00;98234.28;5040338;28;45284;-77
2021/01/15 03:58:08;;;;;;;143.43;24.58;;;;;;;2.70;100.00;98228.91;5040217;28;46124;-76
2021/01/15 04:00:34;;;;;;;158.95;28.00;;;;;;;2.81;100.00;98231.63;5040293;28;45411;-76
2021/01/15 04:02:59;;;;;;;139.25;23.45;;;;;;;2.57;100.00;98242.03;5040018;28;45333;-76
2021/01/15 04:05:25;;;;;;;56.50;20.35;;;;;;;2.43;100.00;98241.22;5036915;28;45355;-76
2021/01/15 04:07:50;;;;;;;27.80;17.73;;;;;;;2.60;100.00;98249.72;5040074;28;46135;-77
2021/01/15 04:10:18;;;;;;;170.65;27.80;;;;;;;2.53;100.00;98256.34;5039955;28;45411;-77
2021/01/15 04:12:44;;;;;;;170.02;28.40;;;;;;;2.61;100.00;98254.88;5040047;28;45303;-77
2021/01/15 04:15:14;;;;;;;182.05;29.60;;;;;;;2.59;100.00;98264.66;5040189;28;45294;-77
2021/01/15 04:17:40;;;;;;;303.23;31.33;;;;;;;2.52;100.00;98252.03;5040010;28;45353;-77
2021/01/15 04:20:08;;;;;;;58.28;21.85;;;;;;;2.75;100.00;98239.94;5040080;28;45361;-77
2021/01/15 04:22:38;;;;;;;29.88;18.52;;;;;;;2.81;100.00;98239.50;5040391;28;45382;-77
2021/01/15 04:25:05;;;;;;;32.50;19.08;;;;;;;2.87;100.00;98238.25;5039336;28;45305;-77
2021/01/15 04:27:32;;;;;;;40.67;20.60;;;;;;;2.93;100.00;98237.81;5039828;28;45501;-77
2021/01/15 04:30:01;;;;;;;37.90;19.15;;;;;;;2.84;100.00;98225.34;5039919;28;45238;-76
2021/01/15 04:32:27;;;;;;;41.03;20.42;;;;;;;2.74;100.00;98236.50;5040316;28;45204;-76
2021/01/15 04:34:52;;;;;;;37.22;20.55;;;;;;;2.76;100.00;98236.38;5039789;28;45215;-76
2021/01/15 04:37:17;;;;;;;39.35;20.35;;;;;;;2.80;100.00;98235.22;5040031;28;46640;-76
2021/01/15 04:39:43;;;;;;;37.78;20.55;;;;;;;2.67;100.00;98237.88;5038650;28;45405;-76
2021/01/15 04:42:12;;;;;;;25.50;15.15;;;;;;;2.57;100.00;98239.41;5039895;28;45235;-76
2021/01/15 04:44:39;;;;;;;27.67;15.27;;;;;;;2.39;100.00;98241.53;5039406;28;45324;-76
2021/01/15 04:47:06;;;;;;;22.33;13.98;;;;;;;2.56;100.00;98243.84;5037048;28;45441;-76
2021/01/15 04:49:34;;;;;;;25.73;14.77;;;;;;;2.68;100.00;98243.94;5037686;28;45634;-76
2021/01/15 04:52:01;;;;;;;31.52;16.13;;;;;;;2.71;100.00;98244.59;5038714;28;45675;-76
2021/01/15 04:54:36;;;;;;;24.23;13.77;;;;;;;2.78;100.00;98244.97;5038895;28;45302;-76
2021/01/15 04:57:05;;;;;;;25.58;14.68;;;;;;;2.81;100.00;98244.78;5039308;28;45433;-76
2021/01/15 04:59:33;;;;;;;23.52;13.57;;;;;;;2.82;100.00;98248.25;5039374;28;45259;-76
2021/01/15 05:02:07;;;;;;;22.13;12.65;;;;;;;2.83;100.00;98250.75;5032519;28;45230;-76
2021/01/15 05:04:33;;;;;;;25.65;14.00;;;;;;;2.89;100.00;98242.44;5035555;28;45206;-76
2021/01/15 05:07:02;;;;;;;17.27;10.35;;;;;;;2.70;100.00;98245.53;5039318;28;45920;-76
2021/01/15 05:09:38;;;;;;;18.73;11.68;;;;;;;2.76;100.00;98242.47;5038838;28;45326;-76
2021/01/15 05:12:07;;;;;;;20.15;11.38;;;;;;;2.83;100.00;98242.88;5039400;28;45465;-76
2021/01/15 05:14:34;;;;;;;20.23;11.52;;;;;;;2.85;100.00;98235.72;5039364;28;45268;-76
2021/01/15 05:17:02;;;;;;;19.17;10.65;;;;;;;2.86;100.00;98232.16;5039068;28;46171;-76
2021/01/15 05:19:28;;;;;;;19.95;11.23;;;;;;;2.88;100.00;98238.13;5039064;28;45422;-76
2021/01/15 05:21:53;;;;;;;441.27;42.00;;;;;;;2.58;100.00;98247.22;5039022;28;45516;-76
2021/01/15 05:24:19;;;;;;;158.60;26.92;;;;;;;2.63;100.00;98233.75;5039124;28;45432;-76
2021/01/15 05:26:45;;;;;;;168.23;23.80;;;;;;;2.34;100.00;98241.84;5038866;28;45416;-76
2021/01/15 05:29:10;;;;;;;29.75;18.45;;;;;;;2.50;100.00;98248.66;5037511;28;45254;-76
2021/01/15 05:31:51;;;;;;;28.30;16.90;;;;;;;2.66;100.00;98245.84;5039119;28;45279;-76
2021/01/15 05:34:17;;;;;;;373.60;34.53;;;;;;;2.43;100.00;98264.00;5039111;28;45345;-76
2021/01/15 05:36:43;;;;;;;299.45;35.90;;;;;;;2.66;100.00;98258.97;5038790;28;45880;-76
2021/01/15 05:39:20;;;;;;;391.63;45.08;;;;;;;2.78;100.00;98258.13;5038588;28;45467;-76
2021/01/15 05:41:48;;;;;;;104.88;26.45;;;;;;;2.78;100.00;98252.88;5038864;28;45449;-76
2021/01/15 05:44:30;;;;;;;78.82;23.88;;;;;;;2.81;100.00;98254.44;5038789;28;45567;-76
2021/01/15 05:46:58;;;;;;;38.90;20.45;;;;;;;2.83;100.00;98253.38;5036656;28;45281;-76
2021/01/15 05:49:24;;;;;;;31.10;16.48;;;;;;;2.83;100.00;98240.25;5038385;28;45515;-77
2021/01/15 05:51:49;;;;;;;20.67;13.50;;;;;;;2.79;100.00;98241.41;5034874;28;45595;-76
2021/01/15 05:54:32;;;;;;;32.30;18.00;;;;;;;2.84;100.00;98244.56;5037998;28;45330;-76
2021/01/15 05:56:59;;;;;;;46.90;21.40;;;;;;;2.63;100.00;98252.97;5038735;28;45908;-76
2021/01/15 05:59:25;;;;;;;208.60;30.83;;;;;;;2.73;100.00;98253.19;5029473;28;45645;-79
2021/01/15 06:02:05;;;;;;;275.25;36.67;;;;;;;2.73;100.00;98263.72;5037631;28;45349;-77
2021/01/15 06:04:31;;;;;;;106.80;26.92;;;;;;;2.72;100.00;98259.41;5028290;28;45557;-86
2021/01/15 06:06:57;;;;;;;43.63;18.88;;;;;;;2.63;100.00;98268.75;5035944;28;46421;-80
2021/01/15 06:09:23;;;;;;;48.70;21.48;;;;;;;2.55;100.00;98260.56;5027759;28;45444;-77
2021/01/15 06:11:50;;;;;;;42.20;21.35;;;;;;;2.64;100.00;98259.06;5037986;28;45453;-77
2021/01/15 06:14:23;;;;;;;58.15;21.42;;;;;;;2.63;100.00;98270.50;5032646;28;45476;-79
2021/01/15 06:17:00;;;;;;;36.28;22.55;;;;;;;2.59;100.00;98267.28;5034610;28;46088;-79
2021/01/15 06:19:42;;;;;;;43.10;24.33;;;;;;;2.52;100.00;98268.63;5036352;28;45440;-79
2021/01/15 06:22:25;;;;;;;40.35;22.05;;;;;;;2.58;100.00;98275.25;5027371;28;45539;-79
2021/01/15 06:25:07;;;;;;;37.83;18.90;;;;;;;2.46;100.00;98279.56;5037211;28;45461;-80
2021/01/15 06:27:37;;;;;;;34.80;18.75;;;;;;;2.44;100.00;98290.16;5029462;28;45429;-79
2021/01/15 06:30:12;;;;;;;32.08;17.98;;;;;;;2.40;100.00;98279.97;5035029;28;45821;-80
2021/01/15 06:32:38;;;;;;;24.63;14.80;;;;;;;2.38;100.00;98284.47;5041119;28;45342;-81
2021/01/15 06:35:04;;;;;;;22.70;13.90;;;;;;;2.15;100.00;98277.19;5036884;28;45456;-80
2021/01/15 06:37:31;;;;;;;26.58;13.65;;;;;;;2.24;100.00;98274.91;5036457;28;46266;-79
2021/01/15 06:40:12;;;;;;;23.58;13.73;;;;;;;2.39;100.00;98284.38;5035108;28;45505;-79
2021/01/15 06:42:48;;;;;;;25.00;14.52;;;;;;;2.46;100.00;98293.50;5037203;28;45545;-79
2021/01/15 06:45:15;;;;;;;21.75;12.88;;;;;;;2.49;100.00;98281.97;5036763;28;45457;-79
2021/01/15 06:47:43;;;;;;;20.92;13.18;;;;;;;2.33;100.00;98280.38;5036786;28;45396;-79
2021/01/15 06:50:13;;;;;;;22.98;14.75;;;;;;;2.49;100.00;98281.97;5036890;28;45309;-81
2021/01/15 06:52:41;;;;;;;;;;;;;;;2.39;100.00;98291.41;5033355;28;45649;-81
2021/01/15 06:55:12;;;;;;;102.65;22.88;;;;;;;2.30;100.00;98304.22;5036161;28;45627;-80
2021/01/15 06:57:39;;;;;;;46.95;20.20;;;;;;;2.28;100.00;98306.09;5036695;28;46652;-82
2021/01/15 07:00:07;;;;;;;28.48;16.80;;;;;;;2.11;100.00;98298.47;5033700;28;45414;-81
2021/01/15 07:02:57;;;;;;;26.58;15.55;;;;;;;2.25;100.00;98290.56;5036245;28;45340;-81
2021/01/15 07:05:26;;;;;;;24.15;14.15;;;;;;;2.36;100.00;98289.00;5032066;28;45576;-83
2021/01/15 07:07:54;;;;;;;29.23;19.38;;;;;;;2.41;100.00;98292.16;5023277;28;46231;-83
2021/01/15 07:10:20;;;;;;;21.95;13.88;;;;;;;2.08;100.00;98283.81;5035335;28;45483;-82
2021/01/15 07:12:55;;;;;;;19.50;12.73;;;;;;;2.10;100.00;98279.28;5028168;28;45519;-82
2021/01/15 07:15:22;;;;;;;18.55;10.90;;;;;;;2.27;100.00;98277.31;5034890;28;45358;-83
2021/01/15 07:17:48;;;;;;;16.05;10.38;;;;;;;2.35;100.00;98288.13;5036946;28;45219;-83
2021/01/15 07:20:18;;;;;;;59.30;21.85;;;;;;;2.14;100.00;98283.38;5036966;28;45373;-83
2021/01/15 07:23:24;;;;;;;468.48;47.80;;;;;;;2.27;100.00;98277.31;5036855;28;45361;-82
2021/01/15 07:25:53;;;;;;;40.58;21.45;;;;;;;2.23;100.00;98281.09;5033706;28;45311;-84
2021/01/15 07:28:19;;;;;;;60.75;27.48;;;;;;;2.32;100.00;98291.84;5035321;28;47269;-83
2021/01/15 07:30:45;;;;;;;56.58;28.30;;;;;;;2.32;100.00;98294.47;5035482;28;45377;-83
2021/01/15 07:33:10;;;;;;;55.28;26.42;;;;;;;2.32;100.00;98297.09;5036804;28;45532;-83
2021/01/15 07:35:38;;;;;;;48.63;29.60;;;;;;;2.28;100.00;98300.00;5036785;28;45305;-82
2021/01/15 07:38:15;;;;;;;43.05;24.08;;;;;;;2.25;100.00;98308.06;5023485;28;45356;-79
2021/01/15 07:40:42;;;;;;;44.90;24.73;;;;;;;2.11;100.00;98303.72;5036502;28;45405;-81
2021/01/15 07:43:34;;;;;;;46.53;25.33;;;;;;;2.37;100.00;98303.81;5036716;28;45370;-81
2021/01/15 07:46:01;;;;;;;39.70;21.85;;;;;;;2.44;100.00;98316.41;5022072;28;45576;-80
2021/01/15 07:48:27;;;;;;;47.42;21.25;;;;;;;2.32;100.00;98319.84;5036591;28;45238;-81
2021/01/15 07:50:53;;;;;;;36.72;21.70;;;;;;;2.30;100.00;98333.09;5024144;28;45205;-82
2021/01/15 07:53:21;;;;;;;48.55;23.33;;;;;;;2.24;100.00;98337.88;5034450;28;45531;-81
2021/01/15 07:55:49;;;;;;;50.70;26.98;;;;;;;2.20;100.00;98342.47;5035082;28;45627;-81
2021/01/15 07:58:17;;;;;;;44.25;23.67;;;;;;;2.08;100.00;98341.53;5035987;28;45366;-81
2021/01/15 08:00:43;;;;;;;39.45;23.92;;;;;;;2.11;100.00;98340.47;5030814;28;45385;-81
2021/01/15 08:03:10;;;;;;;47.53;24.73;;;;;;;2.17;100.00;98340.06;5036328;28;45428;-82
2021/01/15 08:05:36;;;;;;;46.00;24.80;;;;;;;2.20;100.00;98339.84;5033600;28;45564;-81
2021/01/15 08:08:05;;;;;;;46.25;25.70;;;;;;;2.10;100.00;98341.41;5036449;28;45355;-81
2021/01/15 08:10:31;;;;;;;49.38;26.08;;;;;;;2.11;100.00;98333.44;5035801;28;45214;-81
2021/01/15 08:12:57;;;;;;;32.22;19.67;;;;;;;2.13;100.00;98334.19;5036226;28;45221;-82
2021/01/15 08:15:32;;;;;;;36.30;20.88;;;;;;;2.03;100.00;98335.72;5038239;28;45257;-83
2021/01/15 08:18:02;;;;;;;35.33;19.13;;;;;;;2.13;100.00;98349.06;5039749;28;46730;-81
2021/01/15 08:20:28;;;;;;;31.02;18.00;;;;;;;2.22;100.00;98343.25;5039546;28;45733;-83
2021/01/15 08:22:54;;;;;;;39.17;24.33;;;;;;;2.04;100.00;98345.28;5039721;28;45401;-82
2021/01/15 08:25:28;;;;;;;43.03;24.85;;;;;;;2.23;100.00;98344.06;5038933;28;45488;-81
2021/01/15 08:27:55;;;;;;;47.28;25.35;;;;;;;2.14;100.00;98345.50;5039338;28;45893;-83
2021/01/15 08:30:21;;;;;;;40.95;22.20;;;;;;;2.18;100.00;98344.38;5039324;28;45451;-82
2021/01/15 08:32:47;;;;;;;54.17;30.20;;;;;;;2.22;100.00;98337.16;5039617;28;45607;-82
2021/01/15 08:35:21;;;;;;;69.57;40.45;;;;;;;2.18;100.00;98326.00;5039354;28;45377;-81
2021/01/15 08:37:47;;;;;;;53.75;29.90;;;;;;;2.22;100.00;98332.75;5039314;28;46128;-82
2021/01/15 08:40:24;;;;;;;34.85;21.17;;;;;;;2.35;100.00;98337.19;5038869;28;45518;-82
2021/01/15 08:42:50;;;;;;;48.25;27.80;;;;;;;2.17;100.00;98345.31;5037955;28;45479;-83
2021/01/15 08:45:16;;;;;;;46.47;27.77;;;;;;;2.22;100.00;98353.75;5039187;28;45297;-81
2021/01/15 08:47:42;;;;;;;49.25;27.52;;;;;;;2.36;100.00;98354.63;5039095;28;46303;-82
2021/01/15 08:50:07;;;;;;;48.47;28.77;;;;;;;2.48;100.00;98367.75;5032880;28;45533;-82
2021/01/15 08:52:34;;;;;;;75.10;39.72;;;;;;;2.54;100.00;98361.25;5030539;28;45429;-82
2021/01/15 08:55:01;;;;;;;50.10;28.67;;;;;;;2.51;100.00;98363.25;5038625;28;45342;-82
2021/01/15 08:57:28;;;;;;;50.25;30.45;;;;;;;2.52;100.00;98354.41;5037355;28;48312;-82
2021/01/15 08:59:54;;;;;;;51.45;29.98;;;;;;;2.35;100.00;98355.56;5039047;28;45369;-83
2021/01/15 09:02:21;;;;;;;38.35;21.33;;;;;;;2.39;100.00;98357.03;5038599;28;45325;-82
2021/01/15 09:04:48;;;;;;;40.70;24.65;;;;;;;2.19;100.00;98359.16;5035810;28;45410;-83
2021/01/15 09:07:15;;;;;;;39.38;23.20;;;;;;;2.43;100.00;98358.53;5038426;28;45961;-83
2021/01/15 09:09:42;;;;;;;39.42;23.30;;;;;;;2.54;100.00;98363.03;5038625;28;45221;-84
2021/01/15 09:12:09;;;;;;;40.40;24.08;;;;;;;2.61;100.00;98366.94;5038457;28;45343;-85
2021/01/15 09:14:38;;;;;;;28.27;18.80;;;;;;;2.66;100.00;98370.13;5038987;28;45660;-84
2021/01/15 09:17:05;;;;;;;27.80;16.02;;;;;;;2.52;100.00;98371.03;5038436;28;45390;-85
2021/01/15 09:19:31;;;;;;;29.08;16.83;;;;;;;2.31;100.00;98373.28;5038830;28;45282;-84
2021/01/15 09:22:01;;;;;;;28.92;16.95;;;;;;;2.41;100.00;98373.53;5038800;28;45373;-84
2021/01/15 09:24:31;;;;;;;26.92;16.60;;;;;;;2.47;100.00;98365.25;5036783;28;45422;-84
2021/01/15 09:27:01;;;;;;;28.05;16.13;;;;;;;2.69;100.00;98367.28;5036852;28;47281;-84
2021/01/15 09:29:27;;;;;;;22.38;15.05;;;;;;;2.83;100.00;98371.59;5038563;28;45330;-84
2021/01/15 09:31:53;;;;;;;24.30;14.45;;;;;;;2.94;100.00;98381.38;5038637;28;45469;-84
2021/01/15 09:34:20;;;;;;;21.92;13.45;;;;;;;2.98;100.00;98387.25;5037313;28;45332;-85
2021/01/15 09:36:47;;;;;;;28.33;17.05;;;;;;;3.08;100.00;98387.47;5038313;28;45962;-84
2021/01/15 09:39:14;;;;;;;40.13;26.30;;;;;;;2.88;100.00;98394.94;5038251;28;45443;-85
2021/01/15 09:41:51;;;;;;;51.35;32.17;;;;;;;2.69;100.00;98387.44;5038249;28;45395;-84
2021/01/15 09:44:17;;;;;;;56.20;33.08;;;;;;;2.78;100.00;98389.44;5038136;28;45357;-83
2021/01/15 09:46:44;;;;;;;45.70;28.67;;;;;;;2.99;100.00;98395.03;5036841;28;47203;-84
2021/01/15 09:49:10;;;;;;;43.42;23.48;;;;;;;2.99;100.00;98405.56;5038209;28;45254;-83
2021/01/15 09:51:35;;;;;;;37.92;21.50;;;;;;;2.88;100.00;98406.28;5025049;28;46356;-84
2021/01/15 09:54:01;;;;;;;38.47;20.77;;;;;;;2.99;100.00;98410.81;5037852;28;45234;-85
2021/01/15 09:56:34;;;;;;;35.08;21.52;;;;;;;3.10;100.00;98410.09;5037666;28;46180;-84
2021/01/15 09:59:03;;;;;;;40.55;23.65;;;;;;;3.21;100.00;98407.56;5038111;28;45484;-85
2021/01/15 10:01:29;;;;;;;41.85;23.38;;;;;;;3.28;100.00;98410.59;5031139;28;45313;-84
2021/01/15 10:03:56;;;;;;;39.60;21.48;;;;;;;3.13;100.00;98416.91;5034757;28;45584;-85
2021/01/15 10:06:23;;;;;;;43.03;24.65;;;;;;;3.29;100.00;98414.09;5027606;28;46310;-86
2021/01/15 10:08:49;;;;;;;53.53;28.13;;;;;;;3.41;100.00;98420.25;5035534;28;45366;-85
2021/01/15 10:11:31;;;;;;;52.55;31.55;;;;;;;3.35;100.00;98426.81;5037992;28;45349;-89
2021/01/15 10:13:57;;;;;;;41.47;25.65;;;;;;;3.25;100.00;98429.22;5036413;28;45484;-81
2021/01/15 10:16:24;;;;;;;45.65;27.85;;;;;;;3.23;100.00;98432.91;5035555;28;47718;-85
2021/01/15 10:18:50;;;;;;;37.42;24.33;;;;;;;3.00;100.00;98430.03;5036956;28;45413;-83
2021/01/15 10:21:20;;;;;;;42.08;24.60;;;;;;;2.86;100.00;98434.44;5037579;28;45377;-87
2021/01/15 10:23:46;;;;;;;50.10;26.70;;;;;;;3.07;100.00;98431.28;5035966;28;45406;-76
2021/01/15 10:26:11;;;;;;;51.83;27.35;;;;;;;3.25;100.00;98429.22;5035059;28;45440;-81
2021/01/15 10:28:37;;;;;;;46.58;28.38;;;;;;;3.35;100.00;98424.16;5037101;28;46386;-81
2021/01/15 10:31:02;;;;;;;55.45;30.17;;;;;;;3.28;100.00;98425.53;5037747;28;45313;-82
2021/01/15 10:33:28;;;;;;;49.42;29.63;;;;;;;3.41;100.00;98421.13;5037517;28;45349;-80
2021/01/15 10:35:53;;;;;;;60.42;30.77;;;;;;;3.16;100.00;98435.94;5036970;28;45985;-79
2021/01/15 10:38:18;;;;;;;48.90;28.83;;;;;;;3.10;100.00;98433.75;5036918;28;45333;-81
2021/01/15 10:40:45;;;;;;;43.67;24.85;;;;;;;3.09;100.00;98439.91;5043646;28;45484;-81
2021/01/15 10:43:11;;;;;;;44.15;24.02;;;;;;;3.27;100.00;98442.25;5038543;28;45589;-80
2021/01/15 10:45:36;;;;;;;34.10;21.45;;;;;;;3.21;100.00;98440.88;5048159;28;46233;-80
2021/01/15 10:48:03;;;;;;;35.30;21.38;;;;;;;3.33;100.00;98439.22;5040913;28;45440;-80
2021/01/15 10:50:30;;;;;;;44.90;24.65;;;;;;;3.15;100.00;98436.91;5037070;28;45437;-81
2021/01/15 10:52:55;;;;;;;47.75;26.15;;;;;;;3.10;100.00;98432.88;5035130;28;45637;-80
2021/01/15 10:55:21;;;;;;;43.15;24.67;;;;;;;3.29;100.00;98428.06;5036062;28;45557;-79
2021/01/15 10:57:47;;;;;;;49.63;26.02;;;;;;;3.43;100.00;98432.38;5036075;28;45350;-81
2021/01/15 11:00:14;;;;;;;45.40;26.10;;;;;;;3.50;100.00;98431.00;5036570;28;45381;-81
2021/01/15 11:02:40;;;;;;;37.17;22.42;;;;;;;3.53;100.00;98423.84;5035284;28;45570;-80
2021/01/15 11:05:07;;;;;;;31.58;18.67;;;;;;;3.58;100.00;98437.50;5036595;28;45269;-80
2021/01/15 11:07:33;;;;;;;36.55;20.70;;;;;;;3.61;100.00;98427.63;5036497;28;45207;-80
2021/01/15 11:09:59;;;;;;;46.35;25.80;;;;;;;3.64;100.00;98431.81;5032910;28;45243;-80
2021/01/15 11:12:24;;;;;;;37.45;21.90;;;;;;;3.67;100.00;98430.78;5030076;28;45499;-80
2021/01/15 11:14:50;;;;;;;31.45;19.58;;;;;;;3.68;100.00;98427.19;5037455;28;45353;-80
2021/01/15 11:17:15;;;;;;;28.85;18.95;;;;;;;3.66;100.00;98435.19;5034031;28;45302;-78
2021/01/15 11:19:41;;;;;;;34.50;20.95;;;;;;;3.62;100.00;98438.97;5036580;28;45342;-79
2021/01/15 11:22:06;;;;;;;41.53;24.88;;;;;;;3.64;100.00;98443.19;5036731;28;45314;-78